Pagrindinis puslapis
METAR-TAF:

METAR-TAF

Oro uostai :

Naftos platforma

Awg-1, Nyderlandai

platuma: 53-29-30N, ilguma: 5-56-30E, Aukštis: 33 m

Dabartinis oras

Ataskaita buvo paskelbta 35 minutes, ne 00:25 UTC
Vėjas 33 kt iš Šiaurės
Temperatūra 6°C
Drėgmė 70%
Slėgis 1027 hPa
Matomumas 10 km arba daugiau
Mažai debesys ne aukštis 1900 ft

METAR: EHMA 290025Z AUTO 01033KT 9999 FEW019 06/01 Q1027

Laikas: 03:00 (01:00 UTC)


TAF: trūkstamas

Orai ataskaitas ir orų prognozės (METAR, TAF).

turimą stotys yra geltonos ir raudonos taškus žemėlapyje.

Perkelti pele per norėdami pamatyti stoties vardą.

Tada spustelėkite, norėdami matyti oro stebėjimo ir prognozės.

Norėdami pakeisti žemėlapį: spustelėkite ant žalios mygtukų su juodo kryžiaus žemyn,; žalią mygtuką su brūkšneliu, jei norite nutolinti; arba žalių rodyklių gretimoms žemėlapius.


METAR-TAF: